createdAt,value
2023-01-19T00:00:42.175Z,19.5
2023-01-19T00:05:41.857Z,19.5
2023-01-19T00:10:42.299Z,19.5
2023-01-19T00:15:42.539Z,19.5
2023-01-19T00:20:45.504Z,19.5
2023-01-19T00:25:45.368Z,19.5
2023-01-19T00:30:48.353Z,19.5
2023-01-19T00:35:48.064Z,19.5
2023-01-19T00:40:48.210Z,19.5
2023-01-19T00:45:48.407Z,19.5
2023-01-19T00:50:48.366Z,19.5
2023-01-19T00:55:48.800Z,19.5
2023-01-19T01:00:48.981Z,19.5
2023-01-19T01:05:49.666Z,19.5
2023-01-19T01:10:49.720Z,19.4
2023-01-19T01:15:52.420Z,19.5
2023-01-19T01:20:56.278Z,19.4
2023-01-19T01:25:54.385Z,19.5
2023-01-19T01:30:57.510Z,19.5
2023-01-19T01:35:57.151Z,19.5
2023-01-19T01:40:57.489Z,19.5
2023-01-19T01:45:57.771Z,19.5
2023-01-19T01:50:57.856Z,19.5
2023-01-19T01:55:57.711Z,19.5
2023-01-19T02:00:57.973Z,19.5
2023-01-19T02:05:58.152Z,19.5
2023-01-19T02:11:01.121Z,19.4
2023-01-19T02:16:00.670Z,19.5
2023-01-19T02:21:00.979Z,19.4
2023-01-19T02:26:01.204Z,19.5
2023-01-19T02:31:01.344Z,19.5
2023-01-19T02:36:01.096Z,19.4
2023-01-19T02:41:01.457Z,19.5
2023-01-19T02:46:01.412Z,19.4
2023-01-19T02:51:04.235Z,19.4
2023-01-19T02:56:03.833Z,19.4
2023-01-19T03:01:03.950Z,19.4
2023-01-19T03:06:04.098Z,19.4
2023-01-19T03:11:04.401Z,19.4
2023-01-19T03:16:04.477Z,19.4
2023-01-19T03:21:04.486Z,19.4
2023-01-19T03:26:04.720Z,19.5
2023-01-19T03:31:04.895Z,19.4
2023-01-19T03:36:04.936Z,19.5
2023-01-19T03:41:05.303Z,19.4
2023-01-19T03:46:05.641Z,19.4
2023-01-19T03:51:06.062Z,19.4
2023-01-19T03:56:06.250Z,19.5
2023-01-19T04:01:06.385Z,19.4
2023-01-19T04:06:06.550Z,19.4
2023-01-19T04:11:06.990Z,19.4
2023-01-19T04:16:07.105Z,19.4
2023-01-19T04:21:07.141Z,19.4
2023-01-19T04:26:07.235Z,19.4
2023-01-19T04:31:10.129Z,19.4
2023-01-19T04:36:12.571Z,19.4
2023-01-19T04:41:12.194Z,19.4
2023-01-19T04:46:12.305Z,19.4
2023-01-19T04:51:12.385Z,19.4
2023-01-19T04:56:12.620Z,19.4
2023-01-19T05:01:13.131Z,19.4
2023-01-19T05:06:13.216Z,19.4
2023-01-19T05:11:13.347Z,19.4
2023-01-19T05:16:13.873Z,19.4
2023-01-19T05:21:14.137Z,19.4
2023-01-19T05:26:14.321Z,19.4
2023-01-19T05:31:18.708Z,19.3
2023-01-19T05:36:16.857Z,19.3
2023-01-19T05:41:16.859Z,19.3
2023-01-19T05:46:17.255Z,19.3
2023-01-19T05:51:17.491Z,19.3
2023-01-19T05:56:17.732Z,19.3
2023-01-19T06:01:18.013Z,19.3
2023-01-19T06:06:18.383Z,19.3
2023-01-19T06:11:18.700Z,19.4
2023-01-19T06:16:18.810Z,19.4
2023-01-19T06:21:21.893Z,19.4
2023-01-19T06:26:22.307Z,19.4
2023-01-19T06:31:22.458Z,19.5
2023-01-19T06:36:22.597Z,19.5
2023-01-19T06:41:22.635Z,19.5
2023-01-19T06:46:22.958Z,19.6
2023-01-19T06:51:23.281Z,19.7
2023-01-19T06:56:25.967Z,19.7
2023-01-19T07:01:26.104Z,19.8
2023-01-19T07:06:26.203Z,19.8
2023-01-19T07:11:30.438Z,19.8
2023-01-19T07:16:26.879Z,19.9
2023-01-19T07:21:29.144Z,19.9
2023-01-19T07:26:27.235Z,19.9
2023-01-19T07:31:30.307Z,20
2023-01-19T07:36:30.049Z,20
2023-01-19T07:41:30.065Z,20
2023-01-19T07:46:30.095Z,20
2023-01-19T07:51:30.582Z,20.1
2023-01-19T07:56:32.664Z,20.1
2023-01-19T08:01:34.767Z,20.1
2023-01-19T08:06:34.453Z,20.2
2023-01-19T08:11:34.821Z,20.2
2023-01-19T08:16:34.888Z,20.2
2023-01-19T08:21:35.199Z,20.2
2023-01-19T08:26:35.398Z,20.2
2023-01-19T08:31:35.819Z,20.3
2023-01-19T08:36:35.845Z,20.3
2023-01-19T08:41:36.122Z,20.3
2023-01-19T08:46:36.288Z,20.3
2023-01-19T08:51:36.489Z,20.3
2023-01-19T08:56:36.631Z,20.4
2023-01-19T09:01:39.710Z,20.4
2023-01-19T09:06:41.940Z,20.4
2023-01-19T09:11:44.313Z,20.3
2023-01-19T09:16:44.233Z,20.4
2023-01-19T09:21:44.347Z,20.4
2023-01-19T09:26:44.695Z,20.4
2023-01-19T09:31:45.859Z,20.4
2023-01-19T09:36:45.750Z,20.4
2023-01-19T09:41:45.828Z,20.4
2023-01-19T09:46:46.064Z,20.5
2023-01-19T09:51:46.218Z,20.5
2023-01-19T09:56:47.250Z,20.5
2023-01-19T10:01:47.390Z,20.5
2023-01-19T10:06:48.581Z,20.5
2023-01-19T10:11:53.233Z,20.5
2023-01-19T10:16:49.681Z,20.5
2023-01-19T10:21:49.778Z,20.5
2023-01-19T10:26:50.029Z,20.5
2023-01-19T10:31:50.144Z,20.5
2023-01-19T10:36:50.130Z,20.5
2023-01-19T10:41:50.331Z,20.5
2023-01-19T10:46:50.464Z,20.5
2023-01-19T10:51:50.800Z,20.4
2023-01-19T10:56:50.962Z,20.5
2023-01-19T11:01:51.424Z,20.5
2023-01-19T11:06:51.631Z,20.6
2023-01-19T11:11:51.996Z,20.8
2023-01-19T11:16:52.440Z,20.8
2023-01-19T11:21:52.654Z,20.9
2023-01-19T11:26:53.068Z,20.9
2023-01-19T11:31:53.515Z,21
2023-01-19T11:36:53.873Z,21
2023-01-19T11:41:54.089Z,21.1
2023-01-19T11:46:54.169Z,21
2023-01-19T11:51:54.094Z,21
2023-01-19T11:56:54.124Z,20.9
2023-01-19T12:01:54.403Z,20.9
2023-01-19T12:06:54.609Z,20.9
2023-01-19T12:11:54.768Z,20.7
2023-01-19T12:16:55.086Z,20.9
2023-01-19T12:21:57.860Z,20.9
2023-01-19T12:26:57.634Z,20.9
2023-01-19T12:32:00.852Z,21
2023-01-19T12:37:00.661Z,21.1
2023-01-19T12:42:00.759Z,21.2
2023-01-19T12:47:00.979Z,21.2
2023-01-19T12:52:01.025Z,21.6
2023-01-19T12:57:01.300Z,21.5
2023-01-19T13:02:01.266Z,21.4
2023-01-19T13:07:01.380Z,21.4
2023-01-19T13:12:01.502Z,21.4
2023-01-19T13:17:01.679Z,21.5
2023-01-19T13:22:01.903Z,21.5
2023-01-19T13:27:02.198Z,21.5
2023-01-19T13:32:03.305Z,21.6
2023-01-19T13:37:03.267Z,21.6
2023-01-19T13:42:03.773Z,21.6
2023-01-19T13:47:06.867Z,21.5
2023-01-19T13:52:06.611Z,21.3
2023-01-19T13:57:06.806Z,21.4
2023-01-19T14:02:09.111Z,21.4
2023-01-19T14:07:08.870Z,21.5
2023-01-19T14:12:09.095Z,21.6
2023-01-19T14:17:12.307Z,21.6
2023-01-19T14:22:12.002Z,21.6
2023-01-19T14:27:11.864Z,21.6
2023-01-19T14:32:11.902Z,21.6
2023-01-19T14:37:11.808Z,21.6
2023-01-19T14:42:11.909Z,21.6
2023-01-19T14:47:14.532Z,21.7
2023-01-19T14:52:15.131Z,21.6
2023-01-19T14:57:15.460Z,21.7
2023-01-19T15:02:18.761Z,21.7
2023-01-19T15:07:18.551Z,21.7
2023-01-19T15:12:18.697Z,21.6
2023-01-19T15:17:21.547Z,21.7
2023-01-19T15:22:21.286Z,21.7
2023-01-19T15:27:22.078Z,21.6
2023-01-19T15:32:24.646Z,21.6
2023-01-19T15:37:24.378Z,21.6
2023-01-19T15:42:24.331Z,21.7
2023-01-19T15:47:24.673Z,21.6
2023-01-19T15:52:29.357Z,21.7
2023-01-19T15:57:28.958Z,21.7
2023-01-19T16:02:29.166Z,21.7
2023-01-19T16:07:29.429Z,21.7
2023-01-19T16:12:32.273Z,21.7
2023-01-19T16:17:32.040Z,21.7
2023-01-19T16:22:32.300Z,21.7
2023-01-19T16:27:32.492Z,21.7
2023-01-19T16:32:32.759Z,21.7
2023-01-19T16:37:33.987Z,21.7
2023-01-19T16:42:34.129Z,21.7
2023-01-19T16:47:34.363Z,21.7
2023-01-19T16:52:34.504Z,21.6
2023-01-19T16:57:34.675Z,21.7
2023-01-19T17:02:34.943Z,21.7
2023-01-19T17:07:35.336Z,21.7
2023-01-19T17:12:35.667Z,21.7
2023-01-19T17:17:35.762Z,21.7
2023-01-19T17:22:38.627Z,21.7
2023-01-19T17:27:38.220Z,21.7
2023-01-19T17:32:38.296Z,21.7
2023-01-19T17:37:38.386Z,21.7
2023-01-19T17:42:38.452Z,21.7
2023-01-19T17:47:41.409Z,21.7
2023-01-19T17:52:43.633Z,21.6
2023-01-19T17:57:43.436Z,21.7
2023-01-19T18:02:43.379Z,21.5
2023-01-19T18:07:43.086Z,21.4
2023-01-19T18:12:43.906Z,21.3
2023-01-19T18:17:43.776Z,21.3
2023-01-19T18:22:44.118Z,21.2
2023-01-19T18:27:46.932Z,21.2
2023-01-19T18:32:49.138Z,21.2
2023-01-19T18:37:48.755Z,21.1
2023-01-19T18:42:48.987Z,21.1
2023-01-19T18:47:49.062Z,21
2023-01-19T18:52:49.088Z,21
2023-01-19T18:57:49.166Z,21
2023-01-19T19:02:49.417Z,21
2023-01-19T19:07:49.460Z,21
2023-01-19T19:12:52.316Z,20.9
2023-01-19T19:17:54.705Z,20.9
2023-01-19T19:22:54.518Z,20.8
2023-01-19T19:27:57.358Z,20.8
2023-01-19T19:32:56.961Z,20.8
2023-01-19T19:37:59.884Z,20.7
2023-01-19T19:42:59.634Z,20.8
2023-01-19T19:47:59.864Z,20.8
2023-01-19T19:53:00.055Z,20.7
2023-01-19T19:58:00.244Z,20.7
2023-01-19T20:03:00.446Z,20.7
2023-01-19T20:08:00.514Z,20.7
2023-01-19T20:13:00.660Z,20.7
2023-01-19T20:18:00.732Z,20.6
2023-01-19T20:23:03.578Z,20.7
2023-01-19T20:28:03.209Z,20.6
2023-01-19T20:33:06.205Z,20.6
2023-01-19T20:38:08.759Z,20.6
2023-01-19T20:43:08.469Z,20.6
2023-01-19T20:48:11.252Z,20.6
2023-01-19T20:53:10.902Z,20.5
2023-01-19T20:58:09.817Z,20.5
2023-01-19T21:03:10.527Z,20.5
2023-01-19T21:08:10.823Z,20.5
2023-01-19T21:13:13.411Z,20.5
2023-01-19T21:18:13.424Z,20.5
2023-01-19T21:23:13.430Z,20.5
2023-01-19T21:28:13.462Z,20.5
2023-01-19T21:33:13.661Z,20.5
2023-01-19T21:38:13.598Z,20.5
2023-01-19T21:43:13.752Z,20.5
2023-01-19T21:48:14.104Z,20.5
2023-01-19T21:53:14.187Z,20.4
2023-01-19T21:58:14.384Z,20.5
2023-01-19T22:03:14.481Z,20.4
2023-01-19T22:08:14.680Z,20.4
2023-01-19T22:13:15.011Z,20.4
2023-01-19T22:18:15.245Z,20.3
2023-01-19T22:23:18.197Z,20.4
2023-01-19T22:28:17.746Z,20.4
2023-01-19T22:33:17.725Z,20.4
2023-01-19T22:38:17.956Z,20.4
2023-01-19T22:43:19.139Z,20.4
2023-01-19T22:48:19.265Z,20.3
2023-01-19T22:53:19.321Z,20.3
2023-01-19T22:58:19.284Z,20.3
2023-01-19T23:03:22.466Z,20.3
2023-01-19T23:08:24.649Z,20.3
2023-01-19T23:13:23.720Z,20.3
2023-01-19T23:18:24.032Z,20.3
2023-01-19T23:23:24.348Z,20.2
2023-01-19T23:28:24.275Z,20.3
2023-01-19T23:33:24.524Z,20.2
2023-01-19T23:38:27.289Z,20.3
2023-01-19T23:43:27.086Z,20.2
2023-01-19T23:48:27.323Z,20.2
2023-01-19T23:53:27.473Z,20.2
2023-01-19T23:58:27.598Z,20.2
